sensor_id;sensor_type;location;lat;lon;timestamp;pressure;altitude;pressure_sealevel;temperature;humidity
46583;BME280;32309;48.858;8.252;2022-12-10T00:01:03;99189.44;;;1.19;85.37
46583;BME280;32309;48.858;8.252;2022-12-10T00:03:08;99187.00;;;1.15;85.43
46583;BME280;32309;48.858;8.252;2022-12-10T00:05:11;99197.34;;;1.12;85.49
46583;BME280;32309;48.858;8.252;2022-12-10T00:07:12;99196.66;;;1.07;85.42
46583;BME280;32309;48.858;8.252;2022-12-10T00:09:13;99194.13;;;1.07;85.68
46583;BME280;32309;48.858;8.252;2022-12-10T00:11:14;99200.09;;;1.06;85.88
46583;BME280;32309;48.858;8.252;2022-12-10T00:13:16;99200.84;;;1.10;85.14
46583;BME280;32309;48.858;8.252;2022-12-10T00:15:16;99199.16;;;1.09;85.95
46583;BME280;32309;48.858;8.252;2022-12-10T00:17:16;99195.06;;;1.05;85.65
46583;BME280;32309;48.858;8.252;2022-12-10T00:19:17;99204.53;;;1.01;86.34
46583;BME280;32309;48.858;8.252;2022-12-10T00:21:18;99206.25;;;1.01;85.70
46583;BME280;32309;48.858;8.252;2022-12-10T00:23:27;99199.63;;;0.95;86.07
46583;BME280;32309;48.858;8.252;2022-12-10T00:25:27;99204.72;;;0.96;86.43
46583;BME280;32309;48.858;8.252;2022-12-10T00:27:27;99201.25;;;0.97;86.31
46583;BME280;32309;48.858;8.252;2022-12-10T00:29:28;99198.66;;;0.99;86.75
46583;BME280;32309;48.858;8.252;2022-12-10T00:31:29;99197.09;;;0.95;86.35
46583;BME280;32309;48.858;8.252;2022-12-10T00:33:32;99187.72;;;0.95;86.62
46583;BME280;32309;48.858;8.252;2022-12-10T00:35:34;99199.63;;;0.95;86.73
46583;BME280;32309;48.858;8.252;2022-12-10T00:37:35;99194.53;;;0.95;86.77
46583;BME280;32309;48.858;8.252;2022-12-10T00:39:36;99191.94;;;0.96;86.58
46583;BME280;32309;48.858;8.252;2022-12-10T00:41:36;99192.78;;;0.97;86.77
46583;BME280;32309;48.858;8.252;2022-12-10T00:43:36;99197.25;;;0.90;87.14
46583;BME280;32309;48.858;8.252;2022-12-10T00:45:37;99195.31;;;0.97;87.07
46583;BME280;32309;48.858;8.252;2022-12-10T00:47:37;99198.59;;;1.01;87.00
46583;BME280;32309;48.858;8.252;2022-12-10T00:49:37;99202.88;;;1.00;86.53
46583;BME280;32309;48.858;8.252;2022-12-10T00:51:38;99197.81;;;0.98;86.65
46583;BME280;32309;48.858;8.252;2022-12-10T00:53:39;99205.53;;;0.97;86.27
46583;BME280;32309;48.858;8.252;2022-12-10T00:55:40;99211.44;;;0.97;86.41
46583;BME280;32309;48.858;8.252;2022-12-10T00:57:40;99213.13;;;0.98;86.33
46583;BME280;32309;48.858;8.252;2022-12-10T00:59:41;99208.63;;;1.05;86.41
46583;BME280;32309;48.858;8.252;2022-12-10T01:01:41;99214.41;;;1.10;85.27
46583;BME280;32309;48.858;8.252;2022-12-10T01:03:43;99214.69;;;1.03;85.66
46583;BME280;32309;48.858;8.252;2022-12-10T01:05:43;99212.97;;;1.03;85.97
46583;BME280;32309;48.858;8.252;2022-12-10T01:07:44;99218.75;;;1.08;85.54
46583;BME280;32309;48.858;8.252;2022-12-10T01:09:44;99226.44;;;1.07;85.31
46583;BME280;32309;48.858;8.252;2022-12-10T01:11:45;99231.66;;;1.04;85.65
46583;BME280;32309;48.858;8.252;2022-12-10T01:13:47;99222.25;;;1.06;85.32
46583;BME280;32309;48.858;8.252;2022-12-10T01:15:59;99227.28;;;1.07;85.70
46583;BME280;32309;48.858;8.252;2022-12-10T01:20:41;99234.63;;;1.16;84.22
46583;BME280;32309;48.858;8.252;2022-12-10T01:22:42;99230.53;;;1.12;84.87
46583;BME280;32309;48.858;8.252;2022-12-10T01:24:42;99242.44;;;1.12;84.63
46583;BME280;32309;48.858;8.252;2022-12-10T01:26:45;99237.44;;;1.09;84.91
46583;BME280;32309;48.858;8.252;2022-12-10T01:28:48;99244.28;;;1.08;84.91
46583;BME280;32309;48.858;8.252;2022-12-10T01:30:50;99238.19;;;1.12;85.14
46583;BME280;32309;48.858;8.252;2022-12-10T01:32:56;99229.84;;;1.07;85.06
46583;BME280;32309;48.858;8.252;2022-12-10T01:35:05;99234.34;;;1.01;85.68
46583;BME280;32309;48.858;8.252;2022-12-10T01:37:05;99226.75;;;0.99;85.41
46583;BME280;32309;48.858;8.252;2022-12-10T01:39:10;99230.94;;;1.00;85.54
46583;BME280;32309;48.858;8.252;2022-12-10T01:41:23;99231.00;;;0.98;85.60
46583;BME280;32309;48.858;8.252;2022-12-10T01:45:59;99237.22;;;0.90;85.86
46583;BME280;32309;48.858;8.252;2022-12-10T01:48:07;99238.75;;;0.95;85.60
46583;BME280;32309;48.858;8.252;2022-12-10T01:50:39;99235.28;;;0.98;85.40
46583;BME280;32309;48.858;8.252;2022-12-10T01:52:57;99247.09;;;1.01;85.76
46583;BME280;32309;48.858;8.252;2022-12-10T01:54:58;99238.69;;;0.97;86.00
46583;BME280;32309;48.858;8.252;2022-12-10T01:59:52;99245.00;;;0.87;85.93
46583;BME280;32309;48.858;8.252;2022-12-10T02:01:59;99246.50;;;0.92;86.65
46583;BME280;32309;48.858;8.252;2022-12-10T02:13:42;99238.03;;;0.92;86.13
46583;BME280;32309;48.858;8.252;2022-12-10T02:15:59;99237.22;;;0.90;86.08
46583;BME280;32309;48.858;8.252;2022-12-10T02:18:05;99233.22;;;0.82;86.43
46583;BME280;32309;48.858;8.252;2022-12-10T02:20:30;99220.38;;;0.86;86.11
46583;BME280;32309;48.858;8.252;2022-12-10T02:22:48;99222.16;;;0.83;86.41
46583;BME280;32309;48.858;8.252;2022-12-10T02:24:49;99229.88;;;0.80;86.25
46583;BME280;32309;48.858;8.252;2022-12-10T02:26:57;99232.63;;;0.76;86.29
46583;BME280;32309;48.858;8.252;2022-12-10T02:29:10;99231.81;;;0.74;86.88
46583;BME280;32309;48.858;8.252;2022-12-10T02:31:14;99232.66;;;0.74;87.49
46583;BME280;32309;48.858;8.252;2022-12-10T02:33:19;99236.03;;;0.75;86.86
46583;BME280;32309;48.858;8.252;2022-12-10T02:35:23;99224.03;;;0.78;86.51
46583;BME280;32309;48.858;8.252;2022-12-10T02:37:29;99218.13;;;0.76;86.77
46583;BME280;32309;48.858;8.252;2022-12-10T02:39:34;99219.88;;;0.76;86.92
46583;BME280;32309;48.858;8.252;2022-12-10T02:41:43;99217.19;;;0.79;87.22
46583;BME280;32309;48.858;8.252;2022-12-10T02:43:49;99223.34;;;0.73;86.83
46583;BME280;32309;48.858;8.252;2022-12-10T02:45:52;99214.91;;;0.71;87.51
46583;BME280;32309;48.858;8.252;2022-12-10T02:47:56;99219.03;;;0.75;87.77
46583;BME280;32309;48.858;8.252;2022-12-10T02:49:58;99222.53;;;0.73;86.97
46583;BME280;32309;48.858;8.252;2022-12-10T02:52:05;99226.88;;;0.69;87.54
46583;BME280;32309;48.858;8.252;2022-12-10T02:56:42;99223.97;;;0.80;86.87
46583;BME280;32309;48.858;8.252;2022-12-10T03:01:18;99231.75;;;0.77;86.67
46583;BME280;32309;48.858;8.252;2022-12-10T03:03:46;99230.19;;;0.71;86.81
46583;BME280;32309;48.858;8.252;2022-12-10T03:08:13;99241.16;;;0.75;86.60
46583;BME280;32309;48.858;8.252;2022-12-10T03:10:26;99235.28;;;0.73;87.11
46583;BME280;32309;48.858;8.252;2022-12-10T03:12:29;99235.28;;;0.73;87.67
46583;BME280;32309;48.858;8.252;2022-12-10T03:14:35;99241.25;;;0.72;87.12
46583;BME280;32309;48.858;8.252;2022-12-10T03:16:44;99242.13;;;0.71;87.69
46583;BME280;32309;48.858;8.252;2022-12-10T03:18:50;99241.25;;;0.72;88.01
46583;BME280;32309;48.858;8.252;2022-12-10T03:20:55;99236.03;;;0.75;87.60
46583;BME280;32309;48.858;8.252;2022-12-10T03:23:00;99242.13;;;0.71;87.48
46583;BME280;32309;48.858;8.252;2022-12-10T03:25:06;99251.28;;;0.76;87.30
46583;BME280;32309;48.858;8.252;2022-12-10T03:27:09;99246.19;;;0.76;86.83
46583;BME280;32309;48.858;8.252;2022-12-10T03:29:14;99245.16;;;0.82;86.83
46583;BME280;32309;48.858;8.252;2022-12-10T03:31:18;99241.88;;;0.78;86.92
46583;BME280;32309;48.858;8.252;2022-12-10T03:33:19;99252.22;;;0.74;87.06
46583;BME280;32309;48.858;8.252;2022-12-10T03:35:20;99256.50;;;0.73;86.78
46583;BME280;32309;48.858;8.252;2022-12-10T03:37:24;99258.25;;;0.71;87.52
46583;BME280;32309;48.858;8.252;2022-12-10T03:39:26;99259.00;;;0.75;87.37
46583;BME280;32309;48.858;8.252;2022-12-10T03:41:27;99255.63;;;0.74;86.84
46583;BME280;32309;48.858;8.252;2022-12-10T03:43:28;99251.34;;;0.75;86.76
46583;BME280;32309;48.858;8.252;2022-12-10T03:45:28;99255.63;;;0.74;86.52
46583;BME280;32309;48.858;8.252;2022-12-10T03:47:31;99257.31;;;0.75;86.14
46583;BME280;32309;48.858;8.252;2022-12-10T03:49:32;99261.59;;;0.73;87.17
46583;BME280;32309;48.858;8.252;2022-12-10T03:51:32;99262.44;;;0.74;86.76
46583;BME280;32309;48.858;8.252;2022-12-10T03:53:32;99268.50;;;0.70;86.86
46583;BME280;32309;48.858;8.252;2022-12-10T03:55:33;99265.19;;;0.68;86.86
46583;BME280;32309;48.858;8.252;2022-12-10T03:57:33;99258.19;;;0.74;87.13
46583;BME280;32309;48.858;8.252;2022-12-10T03:59:34;99261.75;;;0.69;86.80
46583;BME280;32309;48.858;8.252;2022-12-10T04:01:34;99264.28;;;0.70;86.92
46583;BME280;32309;48.858;8.252;2022-12-10T04:03:35;99269.31;;;0.72;86.99
46583;BME280;32309;48.858;8.252;2022-12-10T04:05:36;99265.25;;;0.66;86.96
46583;BME280;32309;48.858;8.252;2022-12-10T04:07:36;99265.97;;;0.70;87.35
46583;BME280;32309;48.858;8.252;2022-12-10T04:09:36;99266.06;;;0.66;86.89
46583;BME280;32309;48.858;8.252;2022-12-10T04:11:37;99261.97;;;0.62;87.16
46583;BME280;32309;48.858;8.252;2022-12-10T04:13:37;99255.88;;;0.66;87.63
46583;BME280;32309;48.858;8.252;2022-12-10T04:15:57;99251.59;;;0.67;86.77
46583;BME280;32309;48.858;8.252;2022-12-10T04:18:16;99257.63;;;0.64;86.92
46583;BME280;32309;48.858;8.252;2022-12-10T04:20:16;99262.72;;;0.64;87.30
46583;BME280;32309;48.858;8.252;2022-12-10T04:22:35;99267.88;;;0.63;87.19
46583;BME280;32309;48.858;8.252;2022-12-10T04:24:54;99267.19;;;0.58;87.34
46583;BME280;32309;48.858;8.252;2022-12-10T04:27:15;99257.81;;;0.60;87.43
46583;BME280;32309;48.858;8.252;2022-12-10T04:29:16;99261.16;;;0.60;87.59
46583;BME280;32309;48.858;8.252;2022-12-10T04:31:16;99258.56;;;0.62;86.94
46583;BME280;32309;48.858;8.252;2022-12-10T04:33:16;99256.94;;;0.59;87.33
46583;BME280;32309;48.858;8.252;2022-12-10T04:35:17;99256.06;;;0.60;87.40
46583;BME280;32309;48.858;8.252;2022-12-10T04:37:18;99265.53;;;0.57;86.95
46583;BME280;32309;48.858;8.252;2022-12-10T04:39:19;99263.88;;;0.56;87.50
46583;BME280;32309;48.858;8.252;2022-12-10T04:41:19;99256.13;;;0.59;87.34
46583;BME280;32309;48.858;8.252;2022-12-10T04:43:20;99259.50;;;0.59;87.14
46583;BME280;32309;48.858;8.252;2022-12-10T04:45:20;99253.44;;;0.63;87.40
46583;BME280;32309;48.858;8.252;2022-12-10T04:47:20;99249.41;;;0.56;87.42
46583;BME280;32309;48.858;8.252;2022-12-10T04:49:21;99254.41;;;0.59;87.46
46583;BME280;32309;48.858;8.252;2022-12-10T04:51:21;99242.56;;;0.58;87.62
46583;BME280;32309;48.858;8.252;2022-12-10T04:53:22;99250.97;;;0.60;87.12
46583;BME280;32309;48.858;8.252;2022-12-10T04:55:22;99253.75;;;0.53;87.70
46583;BME280;32309;48.858;8.252;2022-12-10T04:57:22;99253.75;;;0.53;87.73
46583;BME280;32309;48.858;8.252;2022-12-10T04:59:22;99260.34;;;0.60;87.20
46583;BME280;32309;48.858;8.252;2022-12-10T05:01:23;99260.28;;;0.61;87.18
46583;BME280;32309;48.858;8.252;2022-12-10T05:03:24;99264.75;;;0.55;87.13
46583;BME280;32309;48.858;8.252;2022-12-10T05:05:24;99267.50;;;0.48;88.04
46583;BME280;32309;48.858;8.252;2022-12-10T05:07:24;99264.06;;;0.49;87.51
46583;BME280;32309;48.858;8.252;2022-12-10T05:09:25;99273.41;;;0.51;88.23
46583;BME280;32309;48.858;8.252;2022-12-10T05:11:26;99274.22;;;0.51;87.73
46583;BME280;32309;48.858;8.252;2022-12-10T05:13:28;99271.03;;;0.44;88.02
46583;BME280;32309;48.858;8.252;2022-12-10T05:15:28;99277.69;;;0.48;88.13
46583;BME280;32309;48.858;8.252;2022-12-10T05:17:29;99279.47;;;0.46;88.21
46583;BME280;32309;48.858;8.252;2022-12-10T05:19:29;99283.72;;;0.46;88.01
46583;BME280;32309;48.858;8.252;2022-12-10T05:21:29;99281.13;;;0.47;88.21
46583;BME280;32309;48.858;8.252;2022-12-10T05:23:50;99278.63;;;0.46;88.06
46583;BME280;32309;48.858;8.252;2022-12-10T05:25:57;99290.50;;;0.47;88.33
46583;BME280;32309;48.858;8.252;2022-12-10T05:28:21;99288.81;;;0.46;88.31
46583;BME280;32309;48.858;8.252;2022-12-10T05:30:22;99290.75;;;0.39;88.21
46583;BME280;32309;48.858;8.252;2022-12-10T05:32:22;99293.41;;;0.36;88.61
46583;BME280;32309;48.858;8.252;2022-12-10T05:34:23;99289.22;;;0.33;89.02
46583;BME280;32309;48.858;8.252;2022-12-10T05:36:24;99281.41;;;0.38;89.01
46583;BME280;32309;48.858;8.252;2022-12-10T05:38:27;99278.84;;;0.40;88.94
46583;BME280;32309;48.858;8.252;2022-12-10T05:40:29;99284.66;;;0.43;88.83
46583;BME280;32309;48.858;8.252;2022-12-10T05:42:29;99290.44;;;0.48;88.72
46583;BME280;32309;48.858;8.252;2022-12-10T05:44:29;99289.63;;;0.48;88.58
46583;BME280;32309;48.858;8.252;2022-12-10T05:46:31;99286.28;;;0.46;89.01
46583;BME280;32309;48.858;8.252;2022-12-10T05:48:33;99292.94;;;0.50;88.08
46583;BME280;32309;48.858;8.252;2022-12-10T05:50:33;99294.44;;;0.57;87.79
46583;BME280;32309;48.858;8.252;2022-12-10T05:52:34;99291.25;;;0.51;88.15
46583;BME280;32309;48.858;8.252;2022-12-10T05:54:34;99293.94;;;0.46;88.18
46583;BME280;32309;48.858;8.252;2022-12-10T05:56:34;99286.09;;;0.52;88.19
46583;BME280;32309;48.858;8.252;2022-12-10T05:58:36;99294.03;;;0.43;88.09
46583;BME280;32309;48.858;8.252;2022-12-10T06:00:40;99294.13;;;0.40;88.25
46583;BME280;32309;48.858;8.252;2022-12-10T06:02:41;99295.09;;;0.36;88.73
46583;BME280;32309;48.858;8.252;2022-12-10T06:04:41;99295.00;;;0.39;88.59
46583;BME280;32309;48.858;8.252;2022-12-10T06:06:41;99302.03;;;0.32;89.14
46583;BME280;32309;48.858;8.252;2022-12-10T06:08:42;99312.28;;;0.30;89.03
46583;BME280;32309;48.858;8.252;2022-12-10T06:10:42;99309.78;;;0.27;89.80
46583;BME280;32309;48.858;8.252;2022-12-10T06:12:42;99327.59;;;0.29;89.77
46583;BME280;32309;48.858;8.252;2022-12-10T06:14:42;99329.31;;;0.28;89.84
46583;BME280;32309;48.858;8.252;2022-12-10T06:16:43;99324.31;;;0.25;89.60
46583;BME280;32309;48.858;8.252;2022-12-10T06:18:45;99327.63;;;0.27;90.05
46583;BME280;32309;48.858;8.252;2022-12-10T06:20:46;99340.25;;;0.32;89.40
46583;BME280;32309;48.858;8.252;2022-12-10T06:22:46;99334.00;;;0.42;88.42
46583;BME280;32309;48.858;8.252;2022-12-10T06:24:46;99341.94;;;0.33;89.26
46583;BME280;32309;48.858;8.252;2022-12-10T06:26:47;99346.19;;;0.32;88.81
46583;BME280;32309;48.858;8.252;2022-12-10T06:28:47;99349.75;;;0.27;89.46
46583;BME280;32309;48.858;8.252;2022-12-10T06:30:48;99343.50;;;0.37;88.56
46583;BME280;32309;48.858;8.252;2022-12-10T06:32:48;99346.19;;;0.32;89.11
46583;BME280;32309;48.858;8.252;2022-12-10T06:34:49;99353.81;;;0.32;89.26
46583;BME280;32309;48.858;8.252;2022-12-10T06:36:49;99358.22;;;0.27;89.26
46583;BME280;32309;48.858;8.252;2022-12-10T06:38:49;99360.75;;;0.27;89.40
46583;BME280;32309;48.858;8.252;2022-12-10T06:40:50;99365.88;;;0.27;89.22
46583;BME280;32309;48.858;8.252;2022-12-10T06:42:51;99375.09;;;0.31;89.20
46583;BME280;32309;48.858;8.252;2022-12-10T06:44:52;99371.75;;;0.29;88.86
46583;BME280;32309;48.858;8.252;2022-12-10T06:46:52;99374.38;;;0.26;89.23
46583;BME280;32309;48.858;8.252;2022-12-10T06:48:53;99375.72;;;0.38;88.44
46583;BME280;32309;48.858;8.252;2022-12-10T06:50:54;99379.22;;;0.36;88.69
46583;BME280;32309;48.858;8.252;2022-12-10T06:52:55;99373.19;;;0.38;87.69
46583;BME280;32309;48.858;8.252;2022-12-10T06:54:56;99375.09;;;0.31;88.34
46583;BME280;32309;48.858;8.252;2022-12-10T06:56:56;99377.84;;;0.24;88.89
46583;BME280;32309;48.858;8.252;2022-12-10T06:58:57;99380.41;;;0.24;89.00
46583;BME280;32309;48.858;8.252;2022-12-10T07:03:07;99374.63;;;0.19;89.18
46583;BME280;32309;48.858;8.252;2022-12-10T07:05:07;99381.44;;;0.18;89.25
46583;BME280;32309;48.858;8.252;2022-12-10T07:07:08;99372.31;;;0.11;89.77
46583;BME280;32309;48.858;8.252;2022-12-10T07:09:08;99373.06;;;0.13;89.63
46583;BME280;32309;48.858;8.252;2022-12-10T07:11:12;99374.66;;;0.17;90.22
46583;BME280;32309;48.858;8.252;2022-12-10T07:13:14;99382.31;;;0.17;89.54
46583;BME280;32309;48.858;8.252;2022-12-10T07:15:14;99380.69;;;0.14;90.17
46583;BME280;32309;48.858;8.252;2022-12-10T07:17:15;99384.84;;;0.19;89.71
46583;BME280;32309;48.858;8.252;2022-12-10T07:19:15;99390.75;;;0.19;89.59
46583;BME280;32309;48.858;8.252;2022-12-10T07:23:25;99399.09;;;0.24;89.63
46583;BME280;32309;48.858;8.252;2022-12-10T07:25:26;99398.19;;;0.27;88.54
46583;BME280;32309;48.858;8.252;2022-12-10T07:27:26;99395.69;;;0.24;89.03
46583;BME280;32309;48.858;8.252;2022-12-10T07:29:27;99405.22;;;0.17;89.15
46583;BME280;32309;48.858;8.252;2022-12-10T07:31:27;99416.34;;;0.16;89.18
46583;BME280;32309;48.858;8.252;2022-12-10T07:33:27;99419.69;;;0.16;89.83
46583;BME280;32309;48.858;8.252;2022-12-10T07:35:28;99417.97;;;0.19;89.66
46583;BME280;32309;48.858;8.252;2022-12-10T07:37:28;99422.25;;;0.16;89.20
46583;BME280;32309;48.858;8.252;2022-12-10T07:39:28;99421.31;;;0.19;89.52
46583;BME280;32309;48.858;8.252;2022-12-10T07:41:29;99423.78;;;0.22;89.24
46583;BME280;32309;48.858;8.252;2022-12-10T07:43:30;99418.78;;;0.19;88.96
46583;BME280;32309;48.858;8.252;2022-12-10T07:45:30;99422.25;;;0.16;89.26
46583;BME280;32309;48.858;8.252;2022-12-10T07:47:30;99423.94;;;0.18;89.16
46583;BME280;32309;48.858;8.252;2022-12-10T07:49:31;99421.31;;;0.19;89.08
46583;BME280;32309;48.858;8.252;2022-12-10T07:51:32;99413.53;;;0.24;88.43
46583;BME280;32309;48.858;8.252;2022-12-10T07:53:32;99426.16;;;0.28;87.82
46583;BME280;32309;48.858;8.252;2022-12-10T07:55:32;99428.16;;;0.19;87.89
46583;BME280;32309;48.858;8.252;2022-12-10T07:57:33;99424.69;;;0.20;88.53
46583;BME280;32309;48.858;8.252;2022-12-10T07:59:33;99427.97;;;0.25;88.53
46583;BME280;32309;48.858;8.252;2022-12-10T08:01:33;99429.63;;;0.26;87.45
46583;BME280;32309;48.858;8.252;2022-12-10T08:03:34;99432.41;;;0.18;87.95
46583;BME280;32309;48.858;8.252;2022-12-10T08:05:34;99428.97;;;0.19;88.30
46583;BME280;32309;48.858;8.252;2022-12-10T08:07:35;99420.25;;;0.28;87.37
46583;BME280;32309;48.858;8.252;2022-12-10T08:09:35;99433.09;;;0.23;87.84
46583;BME280;32309;48.858;8.252;2022-12-10T08:11:35;99429.53;;;0.29;87.00
46583;BME280;32309;48.858;8.252;2022-12-10T08:13:36;99426.97;;;0.30;86.82
46583;BME280;32309;48.858;8.252;2022-12-10T08:15:36;99440.53;;;0.31;86.85
46583;BME280;32309;48.858;8.252;2022-12-10T08:17:37;99442.44;;;0.24;86.60
46583;BME280;32309;48.858;8.252;2022-12-10T08:19:37;99439.00;;;0.25;86.79
46583;BME280;32309;48.858;8.252;2022-12-10T08:21:38;99445.03;;;0.23;86.63
46583;BME280;32309;48.858;8.252;2022-12-10T08:23:38;99442.38;;;0.26;86.88
46583;BME280;32309;48.858;8.252;2022-12-10T08:25:38;99451.75;;;0.24;86.82
46583;BME280;32309;48.858;8.252;2022-12-10T08:27:38;99448.28;;;0.28;86.47
46583;BME280;32309;48.858;8.252;2022-12-10T08:29:39;99462.06;;;0.21;86.73
46583;BME280;32309;48.858;8.252;2022-12-10T08:31:39;99462.19;;;0.16;87.47
46583;BME280;32309;48.858;8.252;2022-12-10T08:33:40;99462.16;;;0.18;87.35
46583;BME280;32309;48.858;8.252;2022-12-10T08:35:41;99462.16;;;0.18;87.09
46583;BME280;32309;48.858;8.252;2022-12-10T08:37:41;99461.34;;;0.15;87.28
46583;BME280;32309;48.858;8.252;2022-12-10T08:39:41;99472.50;;;0.11;87.84
46583;BME280;32309;48.858;8.252;2022-12-10T08:41:43;99468.22;;;0.12;88.14
46583;BME280;32309;48.858;8.252;2022-12-10T08:43:44;99468.88;;;0.20;87.51
46583;BME280;32309;48.858;8.252;2022-12-10T08:45:44;99466.13;;;0.28;86.90
46583;BME280;32309;48.858;8.252;2022-12-10T08:47:44;99464.66;;;0.19;87.05
46583;BME280;32309;48.858;8.252;2022-12-10T08:49:44;99462.19;;;0.16;87.59
46583;BME280;32309;48.858;8.252;2022-12-10T08:51:45;99464.75;;;0.16;88.10
46583;BME280;32309;48.858;8.252;2022-12-10T08:53:45;99464.75;;;0.16;88.28
46583;BME280;32309;48.858;8.252;2022-12-10T08:55:45;99467.31;;;0.14;87.92
46583;BME280;32309;48.858;8.252;2022-12-10T08:57:50;99467.28;;;0.16;88.33
46583;BME280;32309;48.858;8.252;2022-12-10T08:59:50;99476.34;;;0.26;88.75
46583;BME280;32309;48.858;8.252;2022-12-10T09:01:51;99472.00;;;0.30;87.62
46583;BME280;32309;48.858;8.252;2022-12-10T09:03:52;99473.78;;;0.26;87.80
46583;BME280;32309;48.858;8.252;2022-12-10T09:05:53;99478.09;;;0.24;88.29
46583;BME280;32309;48.858;8.252;2022-12-10T09:07:54;99476.31;;;0.28;88.67
46583;BME280;32309;48.858;8.252;2022-12-10T09:09:54;99476.25;;;0.29;88.98
46583;BME280;32309;48.858;8.252;2022-12-10T09:11:54;99477.91;;;0.32;88.11
46583;BME280;32309;48.858;8.252;2022-12-10T09:13:55;99486.41;;;0.31;88.31
46583;BME280;32309;48.858;8.252;2022-12-10T09:15:56;99491.34;;;0.37;88.46
46583;BME280;32309;48.858;8.252;2022-12-10T09:17:56;99497.09;;;0.44;86.70
46583;BME280;32309;48.858;8.252;2022-12-10T09:19:56;99504.06;;;0.39;87.19
46583;BME280;32309;48.858;8.252;2022-12-10T09:21:57;99508.28;;;0.40;87.11
46583;BME280;32309;48.858;8.252;2022-12-10T09:23:57;99516.84;;;0.36;87.04
46583;BME280;32309;48.858;8.252;2022-12-10T09:25:58;99508.97;;;0.45;86.37
46583;BME280;32309;48.858;8.252;2022-12-10T09:27:59;99503.84;;;0.46;85.40
46583;BME280;32309;48.858;8.252;2022-12-10T09:29:59;99509.91;;;0.42;85.42
46583;BME280;32309;48.858;8.252;2022-12-10T09:31:59;99515.94;;;0.38;85.46
46583;BME280;32309;48.858;8.252;2022-12-10T09:34:00;99521.09;;;0.37;85.61
46583;BME280;32309;48.858;8.252;2022-12-10T09:36:02;99521.91;;;0.39;85.39
46583;BME280;32309;48.858;8.252;2022-12-10T09:38:03;99517.81;;;0.31;85.94
46583;BME280;32309;48.858;8.252;2022-12-10T09:40:04;99518.50;;;0.38;86.17
46583;BME280;32309;48.858;8.252;2022-12-10T09:47:02;99512.44;;;0.42;85.37
46583;BME280;32309;48.858;8.252;2022-12-10T09:49:13;99512.44;;;0.42;85.22
46583;BME280;32309;48.858;8.252;2022-12-10T09:51:25;99510.69;;;0.44;84.93
46583;BME280;32309;48.858;8.252;2022-12-10T09:53:29;99519.28;;;0.40;84.61
46583;BME280;32309;48.858;8.252;2022-12-10T09:58:24;99522.00;;;0.34;85.45
46583;BME280;32309;48.858;8.252;2022-12-10T10:03:48;99523.53;;;0.41;85.24
46583;BME280;32309;48.858;8.252;2022-12-10T10:05:49;99525.97;;;0.44;85.05
46583;BME280;32309;48.858;8.252;2022-12-10T10:07:58;99519.09;;;0.48;83.87
46583;BME280;32309;48.858;8.252;2022-12-10T10:10:04;99519.16;;;0.45;84.42
46583;BME280;32309;48.858;8.252;2022-12-10T10:12:12;99511.50;;;0.46;83.90
46583;BME280;32309;48.858;8.252;2022-12-10T10:14:15;99516.66;;;0.43;83.95
46583;BME280;32309;48.858;8.252;2022-12-10T10:16:33;99520.06;;;0.44;84.14
46583;BME280;32309;48.858;8.252;2022-12-10T10:18:38;99520.88;;;0.44;84.37
46583;BME280;32309;48.858;8.252;2022-12-10T10:20:43;99519.97;;;0.47;83.95
46583;BME280;32309;48.858;8.252;2022-12-10T10:22:43;99519.16;;;0.45;84.64
46583;BME280;32309;48.858;8.252;2022-12-10T10:24:44;99525.09;;;0.45;83.97
46583;BME280;32309;48.858;8.252;2022-12-10T10:26:46;99512.44;;;0.42;84.29
46583;BME280;32309;48.858;8.252;2022-12-10T10:28:48;99527.75;;;0.42;84.50
46583;BME280;32309;48.858;8.252;2022-12-10T10:30:53;99529.34;;;0.46;84.21
46583;BME280;32309;48.858;8.252;2022-12-10T10:32:55;99530.22;;;0.45;84.16
46583;BME280;32309;48.858;8.252;2022-12-10T10:34:57;99526.06;;;0.41;84.79
46583;BME280;32309;48.858;8.252;2022-12-10T10:36:59;99524.22;;;0.46;84.00
46583;BME280;32309;48.858;8.252;2022-12-10T10:41:15;99528.63;;;0.41;84.62
46583;BME280;32309;48.858;8.252;2022-12-10T10:43:18;99529.50;;;0.40;85.09
46583;BME280;32309;48.858;8.252;2022-12-10T10:45:35;99522.50;;;0.47;84.88
46583;BME280;32309;48.858;8.252;2022-12-10T10:47:39;99531.06;;;0.44;84.90
46583;BME280;32309;48.858;8.252;2022-12-10T10:49:39;99526.59;;;0.53;84.17
46583;BME280;32309;48.858;8.252;2022-12-10T10:51:44;99525.06;;;0.47;84.51
46583;BME280;32309;48.858;8.252;2022-12-10T10:53:49;99526.56;;;0.54;83.83
46583;BME280;32309;48.858;8.252;2022-12-10T10:55:55;99534.28;;;0.51;83.91
46583;BME280;32309;48.858;8.252;2022-12-10T10:57:56;99529.19;;;0.51;83.32
46583;BME280;32309;48.858;8.252;2022-12-10T11:00:07;99533.38;;;0.54;82.99
46583;BME280;32309;48.858;8.252;2022-12-10T11:02:33;99534.28;;;0.51;83.40
46583;BME280;32309;48.858;8.252;2022-12-10T11:06:35;99544.44;;;0.53;83.54
46583;BME280;32309;48.858;8.252;2022-12-10T11:08:37;99545.19;;;0.56;82.95
46583;BME280;32309;48.858;8.252;2022-12-10T11:10:49;99545.16;;;0.58;82.79
46583;BME280;32309;48.858;8.252;2022-12-10T11:12:56;99539.28;;;0.56;82.65
46583;BME280;32309;48.858;8.252;2022-12-10T11:17:23;99542.94;;;0.45;83.34
46583;BME280;32309;48.858;8.252;2022-12-10T11:19:25;99549.72;;;0.46;83.89
46583;BME280;32309;48.858;8.252;2022-12-10T11:21:26;99557.44;;;0.43;83.83
46583;BME280;32309;48.858;8.252;2022-12-10T11:23:27;99546.31;;;0.46;83.38
46583;BME280;32309;48.858;8.252;2022-12-10T11:30:14;99539.34;;;0.53;82.49
46583;BME280;32309;48.858;8.252;2022-12-10T11:34:39;99535.25;;;0.47;83.11
46583;BME280;32309;48.858;8.252;2022-12-10T11:39:10;99530.78;;;0.55;82.67
46583;BME280;32309;48.858;8.252;2022-12-10T11:48:17;99536.47;;;0.65;82.39
46583;BME280;32309;48.858;8.252;2022-12-10T11:50:47;99541.63;;;0.62;82.32
46583;BME280;32309;48.858;8.252;2022-12-10T11:55:18;99542.34;;;0.67;82.76
46583;BME280;32309;48.858;8.252;2022-12-10T11:57:48;99544.63;;;0.76;81.69
46583;BME280;32309;48.858;8.252;2022-12-10T12:00:04;99545.59;;;0.72;82.11
46583;BME280;32309;48.858;8.252;2022-12-10T12:09:53;99550.47;;;0.80;82.63
46583;BME280;32309;48.858;8.252;2022-12-10T12:12:05;99551.25;;;0.83;82.36
46583;BME280;32309;48.858;8.252;2022-12-10T12:16:14;99550.31;;;0.86;81.39